sensor_id;sensor_type;location;lat;lon;timestamp;P1;durP1;ratioP1;P2;durP2;ratioP2
14153;SDS011;7157;53.144;7.570;2024-02-16T00:00:30;10.20;;;3.90;;
14153;SDS011;7157;53.144;7.570;2024-02-16T00:10:34;7.70;;;3.88;;
14153;SDS011;7157;53.144;7.570;2024-02-16T00:20:38;10.38;;;4.32;;
14153;SDS011;7157;53.144;7.570;2024-02-16T00:30:41;9.35;;;5.35;;
14153;SDS011;7157;53.144;7.570;2024-02-16T00:40:45;10.30;;;4.65;;
14153;SDS011;7157;53.144;7.570;2024-02-16T00:50:48;11.52;;;4.45;;
14153;SDS011;7157;53.144;7.570;2024-02-16T01:00:52;11.80;;;4.65;;
14153;SDS011;7157;53.144;7.570;2024-02-16T01:10:56;9.60;;;4.15;;
14153;SDS011;7157;53.144;7.570;2024-02-16T01:21:00;11.55;;;4.90;;
14153;SDS011;7157;53.144;7.570;2024-02-16T01:31:04;9.40;;;4.55;;
14153;SDS011;7157;53.144;7.570;2024-02-16T01:41:08;10.13;;;4.30;;
14153;SDS011;7157;53.144;7.570;2024-02-16T01:51:12;7.45;;;4.05;;
14153;SDS011;7157;53.144;7.570;2024-02-16T02:01:17;6.18;;;3.60;;
14153;SDS011;7157;53.144;7.570;2024-02-16T02:11:20;7.20;;;3.90;;
14153;SDS011;7157;53.144;7.570;2024-02-16T02:21:25;8.23;;;4.10;;
14153;SDS011;7157;53.144;7.570;2024-02-16T02:31:30;10.25;;;4.03;;
14153;SDS011;7157;53.144;7.570;2024-02-16T02:41:33;8.15;;;3.80;;
14153;SDS011;7157;53.144;7.570;2024-02-16T02:51:37;6.90;;;4.10;;
14153;SDS011;7157;53.144;7.570;2024-02-16T03:01:40;8.52;;;3.58;;
14153;SDS011;7157;53.144;7.570;2024-02-16T03:11:44;7.95;;;3.60;;
14153;SDS011;7157;53.144;7.570;2024-02-16T03:21:47;9.35;;;3.30;;
14153;SDS011;7157;53.144;7.570;2024-02-16T03:31:51;6.78;;;3.40;;
14153;SDS011;7157;53.144;7.570;2024-02-16T03:41:54;5.85;;;2.92;;
14153;SDS011;7157;53.144;7.570;2024-02-16T03:51:58;9.10;;;3.22;;
14153;SDS011;7157;53.144;7.570;2024-02-16T04:02:01;6.43;;;3.00;;
14153;SDS011;7157;53.144;7.570;2024-02-16T04:12:06;7.28;;;3.38;;
14153;SDS011;7157;53.144;7.570;2024-02-16T04:22:09;5.18;;;2.92;;
14153;SDS011;7157;53.144;7.570;2024-02-16T04:32:13;5.88;;;3.30;;
14153;SDS011;7157;53.144;7.570;2024-02-16T04:42:16;5.68;;;2.70;;
14153;SDS011;7157;53.144;7.570;2024-02-16T04:52:21;7.70;;;2.65;;
14153;SDS011;7157;53.144;7.570;2024-02-16T05:02:27;6.93;;;2.80;;
14153;SDS011;7157;53.144;7.570;2024-02-16T05:12:31;6.35;;;3.17;;
14153;SDS011;7157;53.144;7.570;2024-02-16T05:22:35;6.28;;;2.47;;
14153;SDS011;7157;53.144;7.570;2024-02-16T05:32:39;7.28;;;3.17;;
14153;SDS011;7157;53.144;7.570;2024-02-16T05:42:42;12.77;;;2.95;;
14153;SDS011;7157;53.144;7.570;2024-02-16T05:52:46;9.45;;;3.08;;
14153;SDS011;7157;53.144;7.570;2024-02-16T06:02:51;7.07;;;2.42;;
14153;SDS011;7157;53.144;7.570;2024-02-16T06:12:55;5.88;;;2.67;;
14153;SDS011;7157;53.144;7.570;2024-02-16T06:22:58;6.30;;;2.83;;
14153;SDS011;7157;53.144;7.570;2024-02-16T06:33:02;6.13;;;2.70;;
14153;SDS011;7157;53.144;7.570;2024-02-16T06:43:06;5.10;;;2.58;;
14153;SDS011;7157;53.144;7.570;2024-02-16T06:53:10;6.30;;;2.65;;
14153;SDS011;7157;53.144;7.570;2024-02-16T07:03:12;7.10;;;2.47;;
14153;SDS011;7157;53.144;7.570;2024-02-16T07:13:17;7.13;;;2.47;;
14153;SDS011;7157;53.144;7.570;2024-02-16T07:23:20;6.22;;;2.88;;
14153;SDS011;7157;53.144;7.570;2024-02-16T07:33:24;6.72;;;2.42;;
14153;SDS011;7157;53.144;7.570;2024-02-16T07:43:29;7.65;;;2.30;;
14153;SDS011;7157;53.144;7.570;2024-02-16T07:53:34;4.80;;;2.30;;
14153;SDS011;7157;53.144;7.570;2024-02-16T08:03:37;4.65;;;2.67;;
14153;SDS011;7157;53.144;7.570;2024-02-16T08:13:41;4.78;;;2.42;;
14153;SDS011;7157;53.144;7.570;2024-02-16T08:23:44;5.55;;;2.60;;
14153;SDS011;7157;53.144;7.570;2024-02-16T08:33:48;11.40;;;4.47;;
14153;SDS011;7157;53.144;7.570;2024-02-16T08:43:52;10.30;;;4.50;;
14153;SDS011;7157;53.144;7.570;2024-02-16T08:53:56;11.15;;;3.35;;
14153;SDS011;7157;53.144;7.570;2024-02-16T09:03:59;7.63;;;2.92;;
14153;SDS011;7157;53.144;7.570;2024-02-16T09:14:04;6.20;;;3.30;;
14153;SDS011;7157;53.144;7.570;2024-02-16T09:24:07;6.30;;;2.50;;
14153;SDS011;7157;53.144;7.570;2024-02-16T09:34:13;8.00;;;2.67;;
14153;SDS011;7157;53.144;7.570;2024-02-16T09:44:16;6.90;;;2.70;;
14153;SDS011;7157;53.144;7.570;2024-02-16T09:54:22;9.70;;;2.97;;
14153;SDS011;7157;53.144;7.570;2024-02-16T10:04:26;6.80;;;2.45;;
14153;SDS011;7157;53.144;7.570;2024-02-16T10:14:32;8.25;;;2.70;;
14153;SDS011;7157;53.144;7.570;2024-02-16T10:24:35;5.80;;;2.78;;
14153;SDS011;7157;53.144;7.570;2024-02-16T10:34:41;6.00;;;2.80;;
14153;SDS011;7157;53.144;7.570;2024-02-16T10:44:48;5.85;;;2.75;;
14153;SDS011;7157;53.144;7.570;2024-02-16T10:54:55;10.05;;;2.95;;
14153;SDS011;7157;53.144;7.570;2024-02-16T11:04:59;8.20;;;3.17;;
14153;SDS011;7157;53.144;7.570;2024-02-16T11:15:03;8.82;;;3.53;;
14153;SDS011;7157;53.144;7.570;2024-02-16T11:25:10;6.83;;;3.40;;
14153;SDS011;7157;53.144;7.570;2024-02-16T11:35:14;6.88;;;3.50;;
14153;SDS011;7157;53.144;7.570;2024-02-16T11:45:18;9.07;;;3.92;;
14153;SDS011;7157;53.144;7.570;2024-02-16T11:55:22;9.18;;;3.95;;
14153;SDS011;7157;53.144;7.570;2024-02-16T12:05:25;11.00;;;5.10;;
14153;SDS011;7157;53.144;7.570;2024-02-16T12:15:30;8.57;;;4.53;;
14153;SDS011;7157;53.144;7.570;2024-02-16T12:25:33;9.52;;;5.00;;
14153;SDS011;7157;53.144;7.570;2024-02-16T12:35:37;10.63;;;6.30;;
14153;SDS011;7157;53.144;7.570;2024-02-16T12:45:40;11.07;;;6.88;;
14153;SDS011;7157;53.144;7.570;2024-02-16T12:55:45;17.10;;;8.88;;
14153;SDS011;7157;53.144;7.570;2024-02-16T13:05:48;12.40;;;6.88;;
14153;SDS011;7157;53.144;7.570;2024-02-16T13:15:53;14.50;;;8.38;;
14153;SDS011;7157;53.144;7.570;2024-02-16T13:25:57;13.43;;;7.82;;
14153;SDS011;7157;53.144;7.570;2024-02-16T13:36:02;12.65;;;7.45;;
14153;SDS011;7157;53.144;7.570;2024-02-16T13:46:06;11.35;;;6.43;;
14153;SDS011;7157;53.144;7.570;2024-02-16T13:56:10;7.20;;;4.50;;
14153;SDS011;7157;53.144;7.570;2024-02-16T14:06:14;7.30;;;4.60;;
14153;SDS011;7157;53.144;7.570;2024-02-16T14:16:18;8.85;;;4.20;;
14153;SDS011;7157;53.144;7.570;2024-02-16T14:26:21;7.72;;;4.07;;
14153;SDS011;7157;53.144;7.570;2024-02-16T14:36:26;6.53;;;3.38;;
14153;SDS011;7157;53.144;7.570;2024-02-16T14:46:29;5.53;;;2.90;;
14153;SDS011;7157;53.144;7.570;2024-02-16T14:56:33;6.40;;;3.22;;
14153;SDS011;7157;53.144;7.570;2024-02-16T15:06:37;6.10;;;3.42;;
14153;SDS011;7157;53.144;7.570;2024-02-16T15:16:41;6.22;;;3.45;;
14153;SDS011;7157;53.144;7.570;2024-02-16T15:26:44;4.03;;;2.38;;
14153;SDS011;7157;53.144;7.570;2024-02-16T15:36:48;4.65;;;2.75;;
14153;SDS011;7157;53.144;7.570;2024-02-16T15:46:52;4.10;;;2.42;;
14153;SDS011;7157;53.144;7.570;2024-02-16T15:56:59;5.63;;;2.97;;
14153;SDS011;7157;53.144;7.570;2024-02-16T16:07:02;3.78;;;2.42;;
14153;SDS011;7157;53.144;7.570;2024-02-16T16:17:06;4.28;;;2.78;;
14153;SDS011;7157;53.144;7.570;2024-02-16T16:27:09;7.45;;;2.80;;
14153;SDS011;7157;53.144;7.570;2024-02-16T16:37:15;5.40;;;3.50;;
14153;SDS011;7157;53.144;7.570;2024-02-16T16:47:17;6.57;;;4.13;;
14153;SDS011;7157;53.144;7.570;2024-02-16T16:57:22;5.03;;;3.03;;
14153;SDS011;7157;53.144;7.570;2024-02-16T17:07:24;8.10;;;3.50;;
14153;SDS011;7157;53.144;7.570;2024-02-16T17:17:29;9.15;;;3.90;;
14153;SDS011;7157;53.144;7.570;2024-02-16T17:27:34;9.82;;;4.75;;
14153;SDS011;7157;53.144;7.570;2024-02-16T17:37:43;15.88;;;5.40;;
14153;SDS011;7157;53.144;7.570;2024-02-16T17:47:47;10.88;;;4.93;;
14153;SDS011;7157;53.144;7.570;2024-02-16T17:57:51;9.82;;;4.38;;
14153;SDS011;7157;53.144;7.570;2024-02-16T18:07:54;12.30;;;3.10;;
14153;SDS011;7157;53.144;7.570;2024-02-16T18:17:58;5.53;;;2.80;;
14153;SDS011;7157;53.144;7.570;2024-02-16T18:28:02;9.07;;;3.30;;
14153;SDS011;7157;53.144;7.570;2024-02-16T18:38:06;9.18;;;4.18;;
14153;SDS011;7157;53.144;7.570;2024-02-16T18:48:09;14.18;;;4.40;;
14153;SDS011;7157;53.144;7.570;2024-02-16T18:58:14;9.60;;;4.85;;
14153;SDS011;7157;53.144;7.570;2024-02-16T19:08:16;7.85;;;3.72;;
14153;SDS011;7157;53.144;7.570;2024-02-16T19:18:21;8.95;;;4.10;;
14153;SDS011;7157;53.144;7.570;2024-02-16T19:28:24;10.75;;;4.65;;
14153;SDS011;7157;53.144;7.570;2024-02-16T19:38:28;12.38;;;5.93;;
14153;SDS011;7157;53.144;7.570;2024-02-16T19:48:32;15.45;;;6.88;;
14153;SDS011;7157;53.144;7.570;2024-02-16T19:58:36;15.45;;;7.72;;
14153;SDS011;7157;53.144;7.570;2024-02-16T20:08:39;9.25;;;5.05;;
14153;SDS011;7157;53.144;7.570;2024-02-16T20:18:43;15.68;;;7.88;;
14153;SDS011;7157;53.144;7.570;2024-02-16T20:28:46;13.30;;;7.00;;
14153;SDS011;7157;53.144;7.570;2024-02-16T20:38:51;18.83;;;8.07;;
14153;SDS011;7157;53.144;7.570;2024-02-16T20:48:55;10.77;;;6.05;;
14153;SDS011;7157;53.144;7.570;2024-02-16T20:58:59;12.18;;;6.78;;
14153;SDS011;7157;53.144;7.570;2024-02-16T21:09:03;13.40;;;7.45;;
14153;SDS011;7157;53.144;7.570;2024-02-16T21:19:09;12.90;;;6.25;;
14153;SDS011;7157;53.144;7.570;2024-02-16T21:29:12;16.02;;;6.38;;
14153;SDS011;7157;53.144;7.570;2024-02-16T21:39:17;15.10;;;5.95;;
14153;SDS011;7157;53.144;7.570;2024-02-16T21:49:23;13.32;;;5.50;;
14153;SDS011;7157;53.144;7.570;2024-02-16T21:59:29;7.38;;;4.28;;
14153;SDS011;7157;53.144;7.570;2024-02-16T22:09:31;12.15;;;5.55;;
14153;SDS011;7157;53.144;7.570;2024-02-16T22:19:36;13.30;;;5.75;;
14153;SDS011;7157;53.144;7.570;2024-02-16T22:29:39;12.65;;;6.20;;
14153;SDS011;7157;53.144;7.570;2024-02-16T22:39:43;13.57;;;6.18;;
14153;SDS011;7157;53.144;7.570;2024-02-16T22:49:46;15.35;;;6.85;;
14153;SDS011;7157;53.144;7.570;2024-02-16T22:59:51;21.85;;;6.60;;
14153;SDS011;7157;53.144;7.570;2024-02-16T23:09:53;18.42;;;6.55;;
14153;SDS011;7157;53.144;7.570;2024-02-16T23:19:58;20.33;;;7.38;;
14153;SDS011;7157;53.144;7.570;2024-02-16T23:30:00;22.27;;;7.65;;
14153;SDS011;7157;53.144;7.570;2024-02-16T23:40:06;19.85;;;6.72;;
14153;SDS011;7157;53.144;7.570;2024-02-16T23:50:10;14.23;;;7.28;;
